Time;durP1;ratioP1;P1;durP2;ratioP2;P2;SDS_P1;SDS_P2;PMS_P1;PMS_P2;Temp;Humidity;BMP_temperature;BMP_pressure;BME280_temperature;BME280_humidity;BME280_pressure;Samples;Min_cycle;Max_cycle;Signal;HPM_P1;HPM_P2
2021/03/05 00:00:47;;;;;;;11.00;6.63;;;5.10;76.50;;;;;;5075183;28;20020;-71
2021/03/05 00:03:14;;;;;;;18.33;6.80;;;5.10;76.80;;;;;;5074841;28;20494;-71
2021/03/05 00:05:42;;;;;;;13.88;7.75;;;5.10;76.80;;;;;;5074711;28;20024;-70
2021/03/05 00:08:09;;;;;;;10.68;6.78;;;5.10;77.30;;;;;;5069535;28;20179;-70
2021/03/05 00:10:37;;;;;;;13.27;7.82;;;5.00;77.10;;;;;;5054747;28;20453;-70
2021/03/05 00:13:03;;;;;;;13.00;7.35;;;5.00;77.20;;;;;;5058447;28;20119;-71
2021/03/05 00:15:35;;;;;;;11.13;6.70;;;5.00;77.40;;;;;;5074646;28;20032;-70
2021/03/05 00:18:01;;;;;;;11.73;6.57;;;5.00;77.60;;;;;;5091170;28;20182;-71
2021/03/05 00:20:29;;;;;;;14.30;7.05;;;5.00;77.40;;;;;;5090915;28;20061;-70
2021/03/05 00:22:55;;;;;;;13.23;7.15;;;5.00;77.50;;;;;;5074280;28;20028;-70
2021/03/05 00:25:21;;;;;;;13.15;7.72;;;4.90;77.40;;;;;;5091054;28;20035;-70
2021/03/05 00:27:47;;;;;;;12.02;6.93;;;4.90;77.50;;;;;;5071229;28;20469;-70
2021/03/05 00:30:13;;;;;;;11.65;7.45;;;4.90;77.40;;;;;;5071378;28;20028;-70
2021/03/05 00:32:39;;;;;;;11.70;7.13;;;4.90;77.40;;;;;;5072771;28;20032;-70
2021/03/05 00:35:08;;;;;;;12.75;7.68;;;4.90;77.70;;;;;;5071342;28;20032;-70
2021/03/05 00:37:34;;;;;;;11.85;6.80;;;4.90;77.40;;;;;;5071682;28;20032;-70
2021/03/05 00:40:00;;;;;;;10.02;6.50;;;4.90;77.40;;;;;;5071688;28;20031;-70
2021/03/05 00:42:26;;;;;;;10.98;6.13;;;4.90;77.40;;;;;;5072848;28;20024;-70
2021/03/05 00:44:51;;;;;;;12.45;6.70;;;4.90;77.30;;;;;;5071250;28;20036;-70
2021/03/05 00:47:17;;;;;;;10.80;6.65;;;4.90;77.20;;;;;;5071346;28;20024;-69
2021/03/05 00:49:43;;;;;;;10.45;6.70;;;4.80;77.10;;;;;;5072442;28;20040;-70
2021/03/05 00:52:08;;;;;;;9.65;6.32;;;4.80;77.00;;;;;;5071018;28;20146;-70
2021/03/05 00:54:34;;;;;;;11.30;7.07;;;4.80;77.00;;;;;;5070770;28;20036;-70
2021/03/05 00:57:00;;;;;;;10.07;6.38;;;4.80;76.90;;;;;;5070974;28;20035;-70
2021/03/05 00:59:25;;;;;;;9.52;6.53;;;4.80;76.90;;;;;;5070564;28;20044;-70
2021/03/05 01:01:51;;;;;;;8.70;5.75;;;4.70;76.80;;;;;;5072448;28;20024;-69
2021/03/05 01:04:17;;;;;;;8.90;5.97;;;4.60;76.90;;;;;;5072261;28;20028;-70
2021/03/05 01:06:42;;;;;;;12.40;6.43;;;4.60;77.00;;;;;;5072138;28;20024;-70
2021/03/05 01:09:08;;;;;;;9.90;6.00;;;4.50;77.00;;;;;;5070908;28;20021;-70
2021/03/05 01:11:34;;;;;;;10.27;5.80;;;4.40;77.10;;;;;;5070935;28;20064;-70
2021/03/05 01:14:00;;;;;;;10.05;6.18;;;4.30;77.20;;;;;;5071081;28;20081;-70
2021/03/05 01:16:26;;;;;;;10.13;5.97;;;4.20;77.20;;;;;;5070900;28;20020;-69
2021/03/05 01:18:53;;;;;;;10.00;5.50;;;4.20;77.50;;;;;;5072028;28;20025;-70
2021/03/05 01:21:19;;;;;;;9.20;6.25;;;4.10;77.60;;;;;;5072249;28;20033;-70
2021/03/05 01:23:45;;;;;;;10.23;5.85;;;4.10;77.70;;;;;;5071365;28;20024;-71
2021/03/05 01:26:11;;;;;;;9.32;6.13;;;4.00;77.80;;;;;;5072386;28;20025;-70
2021/03/05 01:28:40;;;;;;;9.30;6.13;;;3.90;77.90;;;;;;5072357;28;20037;-70
2021/03/05 01:31:09;;;;;;;8.48;5.82;;;3.90;78.10;;;;;;5070704;28;20067;-70
2021/03/05 01:33:34;;;;;;;9.68;5.82;;;3.80;78.10;;;;;;5072347;28;20051;-70
2021/03/05 01:36:00;;;;;;;9.38;5.53;;;3.70;78.20;;;;;;5070729;28;20032;-70
2021/03/05 01:38:26;;;;;;;10.15;6.40;;;3.70;78.40;;;;;;5071897;28;20128;-70
2021/03/05 01:40:51;;;;;;;10.48;5.93;;;3.60;78.60;;;;;;5070636;28;20031;-70
2021/03/05 01:43:18;;;;;;;11.10;6.38;;;3.50;78.70;;;;;;5072120;28;20028;-70
2021/03/05 01:45:45;;;;;;;11.73;6.30;;;3.50;79.00;;;;;;5070768;28;20074;-70
2021/03/05 01:48:14;;;;;;;9.80;6.28;;;3.40;79.00;;;;;;5070896;28;20028;-70
2021/03/05 01:50:50;;;;;;;10.38;6.22;;;3.40;79.10;;;;;;5071007;28;20020;-70
2021/03/05 01:53:16;;;;;;;9.98;5.82;;;3.40;79.30;;;;;;5070830;28;20024;-70
2021/03/05 01:55:42;;;;;;;12.25;6.93;;;3.30;79.40;;;;;;5070668;28;20028;-70
2021/03/05 01:58:08;;;;;;;9.20;5.82;;;3.30;79.50;;;;;;5072055;28;20067;-70
2021/03/05 02:00:41;;;;;;;11.13;6.10;;;3.20;79.90;;;;;;5071561;28;20067;-70
2021/03/05 02:03:07;;;;;;;13.38;6.82;;;3.20;79.80;;;;;;5071852;28;20082;-70
2021/03/05 02:05:34;;;;;;;11.15;6.60;;;3.10;80.10;;;;;;5072027;28;20388;-70
2021/03/05 02:08:00;;;;;;;12.07;6.80;;;3.10;80.30;;;;;;5075658;28;20142;-70
2021/03/05 02:10:26;;;;;;;10.30;6.93;;;3.00;80.50;;;;;;5074148;28;20032;-71
2021/03/05 02:12:51;;;;;;;10.77;6.28;;;3.00;80.50;;;;;;5075610;28;20032;-70
2021/03/05 02:15:17;;;;;;;12.55;6.75;;;3.00;80.80;;;;;;5075632;28;20040;-70
2021/03/05 02:18:19;;;;;;;11.10;6.97;;;2.90;80.70;;;;;;5074207;28;20028;-70
2021/03/05 02:20:48;;;;;;;12.95;6.72;;;2.90;81.00;;;;;;5073657;28;20446;-70
2021/03/05 02:23:51;;;;;;;12.00;7.18;;;2.80;81.10;;;;;;5075441;28;20104;-70
2021/03/05 02:26:54;;;;;;;15.57;7.10;;;2.80;81.20;;;;;;5074269;28;20047;-70
2021/03/05 02:29:39;;;;;;;13.55;7.13;;;2.80;81.30;;;;;;5075138;28;20266;-70
2021/03/05 02:32:11;;;;;;;11.15;6.53;;;2.80;81.30;;;;;;5073560;28;20476;-70
2021/03/05 02:34:45;;;;;;;11.38;6.13;;;2.70;81.50;;;;;;5075066;28;20495;-70
2021/03/05 02:37:13;;;;;;;13.40;6.28;;;2.70;81.40;;;;;;5075452;28;20095;-70
2021/03/05 02:40:21;;;;;;;10.65;6.70;;;2.70;81.50;;;;;;5073330;28;20043;-70
2021/03/05 02:42:55;;;;;;;12.43;6.72;;;2.70;81.60;;;;;;5069356;28;20047;-70
2021/03/05 02:45:27;;;;;;;12.20;6.50;;;2.70;81.60;;;;;;5073369;28;20025;-70
2021/03/05 02:48:00;;;;;;;11.02;6.68;;;2.70;81.70;;;;;;5074575;28;20033;-70
2021/03/05 02:50:27;;;;;;;12.90;6.82;;;2.60;81.70;;;;;;5073443;28;20059;-70
2021/03/05 02:52:56;;;;;;;10.32;6.28;;;2.60;81.70;;;;;;5073139;28;20029;-70
2021/03/05 02:55:23;;;;;;;11.43;6.90;;;2.60;81.80;;;;;;5073119;28;20040;-70
2021/03/05 02:57:55;;;;;;;11.52;7.05;;;2.60;82.00;;;;;;5074625;28;20043;-70
2021/03/05 03:00:22;;;;;;;12.40;6.43;;;2.60;82.00;;;;;;5072606;28;20072;-70
2021/03/05 03:02:48;;;;;;;10.98;6.55;;;2.50;82.00;;;;;;5074308;28;20452;-70
2021/03/05 03:05:14;;;;;;;14.02;7.18;;;2.50;82.20;;;;;;5072901;28;20103;-70
2021/03/05 03:07:41;;;;;;;14.77;6.70;;;2.40;82.20;;;;;;5072874;28;20078;-70
2021/03/05 03:10:10;;;;;;;16.73;7.20;;;2.40;82.30;;;;;;5074175;28;20033;-70
2021/03/05 03:12:38;;;;;;;14.85;7.25;;;2.40;82.60;;;;;;5073134;28;20089;-70
2021/03/05 03:15:09;;;;;;;11.13;6.55;;;2.30;82.40;;;;;;5074539;28;20499;-70
2021/03/05 03:17:38;;;;;;;11.18;6.47;;;2.30;82.50;;;;;;5074384;28;20481;-70
2021/03/05 03:20:04;;;;;;;10.90;6.13;;;2.30;82.50;;;;;;5072858;28;20032;-70
2021/03/05 03:22:30;;;;;;;11.55;6.47;;;2.30;82.50;;;;;;5072652;28;20028;-70
2021/03/05 03:24:56;;;;;;;11.68;6.45;;;2.20;82.40;;;;;;5074223;28;20384;-70
2021/03/05 03:27:22;;;;;;;12.82;6.30;;;2.20;82.50;;;;;;5073987;28;20043;-70
2021/03/05 03:29:48;;;;;;;16.48;6.85;;;2.20;82.40;;;;;;5073583;28;20419;-70
2021/03/05 03:32:14;;;;;;;11.35;6.45;;;2.20;82.40;;;;;;5073816;28;20056;-70
2021/03/05 03:34:41;;;;;;;12.32;6.65;;;2.20;82.40;;;;;;5072576;28;20055;-70
2021/03/05 03:37:09;;;;;;;12.90;6.30;;;2.10;82.40;;;;;;5072668;28;20086;-70
2021/03/05 03:39:36;;;;;;;13.02;5.38;;;2.10;82.40;;;;;;5072211;28;20028;-70
2021/03/05 03:42:02;;;;;;;11.27;6.18;;;2.10;82.40;;;;;;5073474;28;20036;-70
2021/03/05 03:44:28;;;;;;;10.85;6.00;;;2.00;82.30;;;;;;5073654;28;20433;-70
2021/03/05 03:46:54;;;;;;;11.63;6.38;;;2.00;82.30;;;;;;5073485;28;20024;-70
2021/03/05 03:49:26;;;;;;;11.70;6.18;;;2.00;82.30;;;;;;5073509;28;20036;-70
2021/03/05 03:52:21;;;;;;;14.23;6.00;;;2.00;82.20;;;;;;5071788;28;20029;-70
2021/03/05 03:54:50;;;;;;;10.10;5.65;;;1.90;82.20;;;;;;5071894;28;20029;-70
2021/03/05 03:57:17;;;;;;;11.88;6.03;;;1.90;82.20;;;;;;5071939;28;20433;-70
2021/03/05 03:59:44;;;;;;;10.77;5.28;;;2.00;82.20;;;;;;5072949;28;20094;-70
2021/03/05 04:02:12;;;;;;;9.07;5.45;;;1.90;82.70;;;;;;5073132;28;20032;-69
2021/03/05 04:04:39;;;;;;;11.48;5.63;;;1.90;81.90;;;;;;5073128;28;20036;-70
2021/03/05 04:07:07;;;;;;;10.18;5.85;;;1.90;81.90;;;;;;5071917;28;20468;-70
2021/03/05 04:09:35;;;;;;;10.65;5.32;;;1.90;81.90;;;;;;5071643;28;20039;-70
2021/03/05 04:12:02;;;;;;;10.18;5.30;;;1.80;81.60;;;;;;5071671;28;20024;-70
2021/03/05 04:14:28;;;;;;;8.50;5.40;;;1.80;81.60;;;;;;5071595;28;20105;-70
2021/03/05 04:16:58;;;;;;;10.43;5.50;;;1.80;81.60;;;;;;5072791;28;20032;-70
2021/03/05 04:19:25;;;;;;;10.75;5.38;;;1.70;81.50;;;;;;5072848;28;20076;-70
2021/03/05 04:21:52;;;;;;;10.48;5.78;;;1.70;81.50;;;;;;5071680;28;20044;-70
2021/03/05 04:24:18;;;;;;;9.85;5.47;;;1.70;81.40;;;;;;5071551;28;20024;-70
2021/03/05 04:26:45;;;;;;;9.88;5.10;;;1.70;82.00;;;;;;5071519;28;20024;-69
2021/03/05 04:29:11;;;;;;;10.18;5.13;;;1.60;81.40;;;;;;5072663;28;20043;-70
2021/03/05 04:31:36;;;;;;;12.10;5.80;;;1.60;81.50;;;;;;5072965;28;20119;-70
2021/03/05 04:34:02;;;;;;;8.57;5.45;;;1.60;81.50;;;;;;5072765;28;20361;-69
2021/03/05 04:36:28;;;;;;;9.15;5.60;;;1.60;81.60;;;;;;5071446;28;20032;-70
2021/03/05 04:38:54;;;;;;;10.90;6.25;;;1.50;81.70;;;;;;5072565;28;20029;-70
2021/03/05 04:41:19;;;;;;;12.70;6.07;;;1.50;81.70;;;;;;5071065;28;20020;-70
2021/03/05 04:43:45;;;;;;;10.07;5.85;;;1.50;81.80;;;;;;5071077;28;20032;-70
2021/03/05 04:46:11;;;;;;;11.48;5.60;;;1.50;82.00;;;;;;5071428;28;20165;-69
2021/03/05 04:48:36;;;;;;;9.02;5.28;;;1.40;82.30;;;;;;5072516;28;20025;-70
2021/03/05 04:51:02;;;;;;;10.73;5.63;;;1.40;82.10;;;;;;5070990;28;20056;-70
2021/03/05 04:53:28;;;;;;;11.50;5.93;;;1.40;82.10;;;;;;5071063;28;20077;-70
2021/03/05 04:55:53;;;;;;;9.98;5.20;;;1.40;82.20;;;;;;5072254;28;20025;-70
2021/03/05 04:58:19;;;;;;;11.63;5.20;;;1.40;82.20;;;;;;5070859;28;20028;-70
2021/03/05 05:00:44;;;;;;;13.82;5.38;;;1.40;82.20;;;;;;5072058;28;20070;-70
2021/03/05 05:03:10;;;;;;;10.98;5.47;;;1.40;82.20;;;;;;5071030;28;20016;-70
2021/03/05 05:05:39;;;;;;;9.55;5.45;;;1.30;82.10;;;;;;5072492;28;20436;-70
2021/03/05 05:08:06;;;;;;;12.07;5.53;;;1.40;82.10;;;;;;5070897;28;20017;-69
2021/03/05 05:10:32;;;;;;;8.77;4.97;;;1.30;82.00;;;;;;5072318;28;20028;-70
2021/03/05 05:12:58;;;;;;;13.80;5.20;;;1.30;82.00;;;;;;5070898;28;20035;-70
2021/03/05 05:15:23;;;;;;;8.02;4.43;;;1.30;82.30;;;;;;5072235;28;20056;-70
2021/03/05 05:17:49;;;;;;;9.15;4.93;;;1.30;82.00;;;;;;5072449;28;20032;-70
2021/03/05 05:20:15;;;;;;;9.55;5.35;;;1.30;81.90;;;;;;5071107;28;20117;-70
2021/03/05 05:22:41;;;;;;;7.55;4.90;;;1.30;81.80;;;;;;5070843;28;20093;-70
2021/03/05 05:25:08;;;;;;;8.27;4.82;;;1.30;81.80;;;;;;5070952;28;20016;-69
2021/03/05 05:27:34;;;;;;;9.13;4.78;;;1.30;81.60;;;;;;5072271;28;20048;-70
2021/03/05 05:29:59;;;;;;;8.82;4.90;;;1.30;81.50;;;;;;5072569;28;20103;-70
2021/03/05 05:32:25;;;;;;;8.77;4.97;;;1.30;81.40;;;;;;5072383;28;20389;-70
2021/03/05 05:34:51;;;;;;;7.97;4.82;;;1.30;81.40;;;;;;5070918;28;20104;-70
2021/03/05 05:37:16;;;;;;;14.38;4.90;;;1.30;81.30;;;;;;5070755;28;20028;-70
2021/03/05 05:39:42;;;;;;;9.40;4.93;;;1.30;81.30;;;;;;5072055;28;20025;-69
2021/03/05 05:45:30;;;;;;;8.02;4.70;;;1.30;81.10;;;;;;5075842;28;20028;-70
2021/03/05 05:47:57;;;;;;;8.32;4.43;;;1.20;81.00;;;;;;5075794;28;20017;-70
2021/03/05 05:50:24;;;;;;;7.45;4.47;;;1.20;80.90;;;;;;5074197;28;20020;-70
2021/03/05 05:52:50;;;;;;;7.82;4.32;;;1.20;80.80;;;;;;5075550;28;20020;-70
2021/03/05 05:55:18;;;;;;;9.70;4.43;;;1.20;80.80;;;;;;5075537;28;20061;-70
2021/03/05 05:57:44;;;;;;;8.27;4.35;;;1.20;80.80;;;;;;5075526;28;20036;-70
2021/03/05 06:00:10;;;;;;;7.53;4.55;;;1.20;80.70;;;;;;5075265;28;20048;-69
2021/03/05 06:02:39;;;;;;;6.95;4.03;;;1.20;80.60;;;;;;5075624;28;20089;-70
2021/03/05 06:05:06;;;;;;;6.22;4.22;;;1.20;80.60;;;;;;5075358;28;20082;-69
2021/03/05 06:07:32;;;;;;;10.23;4.47;;;1.20;80.50;;;;;;5075143;28;20048;-70
2021/03/05 06:09:57;;;;;;;8.23;4.03;;;1.30;80.40;;;;;;5073724;28;20568;-70
2021/03/05 06:12:23;;;;;;;6.50;3.83;;;1.20;80.20;;;;;;5073781;28;20052;-70
2021/03/05 06:14:49;;;;;;;7.13;3.85;;;1.20;80.00;;;;;;5075109;28;20096;-69
2021/03/05 06:17:14;;;;;;;9.38;4.00;;;1.20;79.90;;;;;;5075018;28;20074;-70
2021/03/05 06:19:40;;;;;;;7.40;4.07;;;1.20;79.90;;;;;;5074832;28;20024;-70
2021/03/05 06:22:19;;;;;;;7.50;3.78;;;1.20;79.70;;;;;;5074988;28;20020;-70
2021/03/05 06:24:45;;;;;;;10.15;3.83;;;1.10;79.50;;;;;;5073775;28;20029;-70
2021/03/05 06:27:11;;;;;;;7.00;3.90;;;1.10;79.50;;;;;;5075180;28;20082;-70
2021/03/05 06:29:42;;;;;;;8.43;4.25;;;1.20;79.30;;;;;;5073517;28;20483;-70
2021/03/05 06:32:10;;;;;;;6.53;3.75;;;1.20;79.20;;;;;;5074953;28;20055;-70
2021/03/05 06:34:52;;;;;;;9.05;3.50;;;1.10;78.80;;;;;;5073611;28;20444;-71
2021/03/05 06:40:39;;;;;;;8.45;3.35;;;1.20;78.60;;;;;;5074633;28;20035;-70
2021/03/05 06:43:05;;;;;;;9.82;3.90;;;1.20;78.40;;;;;;5074719;28;20021;-70
2021/03/05 06:45:36;;;;;;;7.80;3.58;;;1.20;78.20;;;;;;5074671;28;20048;-70
2021/03/05 06:48:09;;;;;;;5.78;3.33;;;1.20;78.10;;;;;;5073127;28;20073;-70
2021/03/05 06:50:42;;;;;;;7.70;3.75;;;1.20;78.20;;;;;;5074399;28;20024;-69
2021/03/05 06:53:21;;;;;;;7.63;4.18;;;1.20;78.20;;;;;;5072738;28;20058;-70
2021/03/05 06:55:47;;;;;;;9.13;5.15;;;1.20;78.20;;;;;;5073077;28;20448;-70
2021/03/05 06:58:12;;;;;;;9.68;4.53;;;1.30;78.30;;;;;;5074529;28;20031;-70
2021/03/05 07:00:38;;;;;;;8.90;3.70;;;1.30;78.40;;;;;;5072986;28;20139;-70
2021/03/05 07:03:23;;;;;;;6.88;3.25;;;1.30;78.20;;;;;;5073465;28;20540;-70
2021/03/05 07:05:53;;;;;;;8.55;3.30;;;1.30;77.90;;;;;;5073995;28;20017;-70
2021/03/05 07:08:45;;;;;;;7.90;3.30;;;1.40;77.70;;;;;;5073040;28;20040;-69
2021/03/05 07:11:30;;;;;;;6.22;3.28;;;1.40;77.50;;;;;;5073110;28;20024;-70
2021/03/05 07:13:56;;;;;;;6.32;2.90;;;1.40;78.00;;;;;;5074382;28;20484;-70
2021/03/05 07:16:21;;;;;;;9.85;3.20;;;1.40;77.40;;;;;;5072971;28;20031;-70
2021/03/05 07:18:47;;;;;;;5.28;2.97;;;1.40;77.00;;;;;;5073886;28;20025;-70
2021/03/05 07:21:18;;;;;;;8.57;3.05;;;1.50;77.00;;;;;;5072621;28;20112;-69
2021/03/05 07:23:46;;;;;;;5.30;2.80;;;1.50;77.00;;;;;;5072612;28;20123;-70
2021/03/05 07:26:12;;;;;;;6.85;3.15;;;1.60;76.90;;;;;;5072778;28;20414;-70
2021/03/05 07:28:44;;;;;;;5.32;2.92;;;1.60;76.80;;;;;;5073971;28;20062;-70
2021/03/05 07:31:10;;;;;;;6.72;2.90;;;1.60;76.70;;;;;;5072627;28;20021;-70
2021/03/05 07:33:39;;;;;;;5.30;2.90;;;1.70;76.80;;;;;;5072986;28;20021;-70
2021/03/05 07:36:09;;;;;;;5.53;3.35;;;1.70;76.50;;;;;;5073843;28;20096;-71
2021/03/05 07:38:40;;;;;;;6.13;3.30;;;1.80;76.20;;;;;;5072268;28;20031;-70
2021/03/05 07:41:07;;;;;;;7.57;3.20;;;1.80;76.10;;;;;;5072412;28;20111;-70
2021/03/05 07:43:33;;;;;;;4.20;2.42;;;1.80;76.20;;;;;;5072103;28;20107;-70
2021/03/05 07:46:00;;;;;;;6.50;3.13;;;1.90;75.90;;;;;;5072205;28;20055;-70
2021/03/05 07:48:26;;;;;;;5.50;3.22;;;1.90;75.80;;;;;;5071983;28;20051;-70
2021/03/05 07:51:00;;;;;;;8.60;3.00;;;2.00;75.80;;;;;;5071793;28;20082;-70
2021/03/05 07:53:26;;;;;;;7.47;3.13;;;2.00;75.70;;;;;;5072412;28;20422;-69
2021/03/05 07:55:52;;;;;;;5.93;2.92;;;2.00;75.60;;;;;;5073076;28;20099;-69
2021/03/05 07:58:56;;;;;;;5.97;3.13;;;2.00;75.80;;;;;;5071956;28;20150;-70
2021/03/05 08:01:50;;;;;;;7.63;3.03;;;2.10;76.00;;;;;;5054354;28;20033;-70
2021/03/05 08:04:16;;;;;;;5.57;2.63;;;2.10;76.00;;;;;;5053559;28;20067;-70
2021/03/05 08:06:42;;;;;;;6.43;2.70;;;2.10;75.90;;;;;;5054311;28;20511;-70
2021/03/05 08:09:17;;;;;;;5.18;2.78;;;2.20;76.00;;;;;;5054187;28;20028;-70
2021/03/05 08:11:43;;;;;;;4.35;2.47;;;2.30;75.70;;;;;;5054055;28;20024;-69
2021/03/05 08:14:21;;;;;;;7.55;2.42;;;2.30;75.60;;;;;;5053899;28;20526;-70
2021/03/05 08:16:48;;;;;;;5.78;2.45;;;2.40;75.50;;;;;;5070588;28;20025;-69
2021/03/05 08:19:15;;;;;;;8.63;2.83;;;2.50;75.30;;;;;;5053610;28;20048;-69
2021/03/05 08:22:01;;;;;;;4.43;2.60;;;2.50;75.00;;;;;;5070545;28;20045;-69
2021/03/05 08:24:27;;;;;;;8.52;2.85;;;2.60;75.00;;;;;;5070951;28;20116;-68
2021/03/05 08:27:14;;;;;;;5.93;2.60;;;2.60;75.00;;;;;;5054139;28;20115;-68
2021/03/05 08:30:08;;;;;;;8.00;3.08;;;2.70;74.90;;;;;;5053951;28;20115;-70
2021/03/05 08:32:33;;;;;;;5.13;3.10;;;2.80;74.80;;;;;;5065135;28;20032;-70
2021/03/05 08:35:06;;;;;;;4.72;1.98;;;2.80;74.50;;;;;;5073163;28;20086;-70
2021/03/05 08:37:33;;;;;;;6.80;2.20;;;2.80;74.20;;;;;;5073038;28;20093;-71
2021/03/05 08:40:15;;;;;;;5.32;1.90;;;2.90;74.30;;;;;;5071481;28;20080;-70
2021/03/05 08:42:46;;;;;;;5.05;2.05;;;3.00;73.50;;;;;;5072963;28;20089;-70
2021/03/05 08:45:25;;;;;;;4.43;1.83;;;3.10;73.50;;;;;;5071417;28;20413;-70
2021/03/05 08:48:02;;;;;;;3.25;1.50;;;3.20;73.40;;;;;;5071266;28;20434;-70
2021/03/05 08:50:33;;;;;;;2.78;1.42;;;3.20;73.20;;;;;;5072689;28;20024;-69
2021/03/05 08:53:01;;;;;;;9.18;1.65;;;3.30;73.20;;;;;;5071357;28;20361;-71
2021/03/05 08:55:31;;;;;;;9.50;1.45;;;3.30;72.50;;;;;;5071299;28;20082;-70
2021/03/05 08:57:57;;;;;;;4.75;1.40;;;3.40;71.40;;;;;;5071486;28;20032;-69
2021/03/05 09:00:28;;;;;;;4.68;1.25;;;3.40;69.30;;;;;;5071186;28;20056;-69
2021/03/05 09:03:05;;;;;;;5.35;1.35;;;3.50;70.40;;;;;;5071641;28;20074;-69
2021/03/05 09:05:33;;;;;;;2.83;1.10;;;3.60;70.20;;;;;;5072662;28;20025;-71
2021/03/05 09:07:59;;;;;;;3.58;1.48;;;3.60;68.00;;;;;;5071327;28;20028;-70
2021/03/05 09:10:59;;;;;;;4.63;1.35;;;3.70;69.10;;;;;;5071206;28;20391;-70
2021/03/05 09:13:31;;;;;;;5.15;1.30;;;3.70;66.50;;;;;;5071706;28;20029;-70
2021/03/05 09:16:01;;;;;;;4.72;1.60;;;3.70;65.30;;;;;;5075516;28;20439;-70
2021/03/05 09:18:29;;;;;;;3.67;1.70;;;3.70;65.30;;;;;;5076699;28;20056;-71
2021/03/05 09:20:58;;;;;;;3.40;1.48;;;3.70;65.50;;;;;;5076517;28;20083;-70
2021/03/05 09:23:37;;;;;;;3.58;1.30;;;3.70;65.80;;;;;;5076139;28;20036;-69
2021/03/05 09:26:04;;;;;;;2.92;1.30;;;3.80;66.60;;;;;;5075828;28;20036;-71
2021/03/05 09:28:36;;;;;;;3.88;1.20;;;3.90;65.90;;;;;;5074829;28;20020;-71
2021/03/05 09:31:02;;;;;;;4.10;1.10;;;4.00;65.70;;;;;;5074897;28;20032;-70
2021/03/05 09:33:30;;;;;;;2.55;1.10;;;4.00;66.30;;;;;;5075004;28;20059;-70
2021/03/05 09:36:04;;;;;;;2.03;1.00;;;4.10;65.60;;;;;;5076053;28;20112;-69
2021/03/05 09:38:30;;;;;;;1.70;1.00;;;4.10;64.10;;;;;;5076318;28;20066;-70
2021/03/05 09:41:16;;;;;;;5.13;1.20;;;4.20;64.60;;;;;;5074745;28;20423;-69
2021/03/05 09:43:42;;;;;;;4.78;1.50;;;4.20;64.70;;;;;;5074925;28;20017;-71
2021/03/05 09:46:20;;;;;;;4.30;1.05;;;4.30;63.60;;;;;;5074604;28;20016;-69
2021/03/05 09:48:45;;;;;;;2.65;0.93;;;4.30;63.00;;;;;;5074584;28;20407;-68
2021/03/05 09:51:12;;;;;;;4.35;1.20;;;4.40;62.10;;;;;;5074623;28;20024;-70
2021/03/05 09:53:39;;;;;;;2.97;0.90;;;4.40;62.30;;;;;;5074414;28;20480;-70
2021/03/05 09:56:06;;;;;;;1.98;0.80;;;4.40;61.40;;;;;;5075620;28;20114;-70
2021/03/05 09:58:32;;;;;;;3.00;0.85;;;4.40;61.20;;;;;;5075316;28;20024;-70
2021/03/05 10:00:58;;;;;;;2.00;1.00;;;4.50;59.50;;;;;;5075503;28;20178;-69
2021/03/05 10:03:25;;;;;;;3.75;0.98;;;4.60;59.80;;;;;;5075630;28;20028;-69
2021/03/05 10:05:51;;;;;;;2.90;0.95;;;4.60;57.90;;;;;;5074098;28;20022;-70
2021/03/05 10:08:21;;;;;;;2.38;1.10;;;4.70;58.20;;;;;;5075629;28;20024;-69
2021/03/05 10:11:04;;;;;;;3.55;1.05;;;4.70;57.90;;;;;;5075378;28;20032;-70
2021/03/05 10:13:51;;;;;;;2.00;1.08;;;4.70;56.10;;;;;;5073923;28;20052;-71
2021/03/05 10:16:30;;;;;;;4.47;1.02;;;4.80;57.40;;;;;;5073918;28;20032;-71
2021/03/05 10:19:02;;;;;;;2.28;0.95;;;4.80;56.20;;;;;;5073704;28;20037;-71
2021/03/05 10:21:29;;;;;;;3.22;0.80;;;4.90;54.80;;;;;;5073805;28;20021;-71
2021/03/05 10:23:55;;;;;;;1.52;0.80;;;4.90;53.90;;;;;;5075025;28;20027;-69
2021/03/05 10:26:23;;;;;;;2.05;0.98;;;4.90;53.00;;;;;;5074687;28;20021;-69
2021/03/05 10:28:55;;;;;;;2.20;0.70;;;5.00;52.50;;;;;;5074763;28;20025;-69
2021/03/05 10:31:21;;;;;;;4.53;1.15;;;5.00;52.40;;;;;;5075168;28;20023;-70
2021/03/05 10:33:47;;;;;;;3.20;0.85;;;5.10;52.20;;;;;;5075493;28;20103;-69
2021/03/05 10:36:14;;;;;;;2.72;0.57;;;5.10;50.90;;;;;;5074806;28;20103;-70
2021/03/05 10:38:41;;;;;;;1.63;0.90;;;5.10;50.80;;;;;;5073497;28;20116;-71
2021/03/05 10:41:07;;;;;;;1.23;0.52;;;5.20;49.50;;;;;;5073666;28;20044;-71
2021/03/05 10:43:35;;;;;;;1.40;0.73;;;5.20;50.80;;;;;;5073518;28;20108;-71
2021/03/05 10:46:01;;;;;;;1.92;0.65;;;5.30;50.50;;;;;;5073402;28;20012;-71
2021/03/05 10:48:27;;;;;;;4.07;0.82;;;5.30;50.80;;;;;;5073308;28;20053;-71
2021/03/05 10:50:52;;;;;;;1.35;0.80;;;5.40;51.00;;;;;;5073316;28;20028;-71
2021/03/05 10:53:18;;;;;;;1.75;0.80;;;5.40;49.40;;;;;;5073511;28;20025;-72
2021/03/05 10:55:44;;;;;;;1.40;0.75;;;5.40;49.30;;;;;;5073232;28;20020;-71
2021/03/05 10:58:10;;;;;;;1.13;0.70;;;5.50;48.90;;;;;;5073146;28;20081;-71
2021/03/05 11:00:35;;;;;;;3.17;1.00;;;5.50;48.30;;;;;;5072814;28;20040;-72
2021/03/05 11:03:01;;;;;;;3.53;0.73;;;5.50;47.20;;;;;;5072905;28;20111;-73
2021/03/05 11:05:27;;;;;;;1.35;0.60;;;5.60;45.90;;;;;;5073047;28;20028;-71
2021/03/05 11:07:53;;;;;;;1.38;0.70;;;5.60;46.30;;;;;;5074609;28;20100;-75
2021/03/05 11:10:19;;;;;;;2.47;0.65;;;5.70;45.40;;;;;;5073215;28;20435;-70
2021/03/05 11:12:47;;;;;;;1.90;0.60;;;5.70;45.20;;;;;;5073157;28;20107;-69
2021/03/05 11:15:13;;;;;;;1.33;0.60;;;5.80;45.60;;;;;;5073221;28;20024;-70
2021/03/05 11:17:38;;;;;;;1.23;0.65;;;5.80;44.70;;;;;;5073861;28;20027;-71
2021/03/05 11:20:05;;;;;;;1.42;0.60;;;5.90;44.20;;;;;;5072949;28;20472;-71
2021/03/05 11:22:31;;;;;;;1.90;0.63;;;5.90;44.80;;;;;;5074280;28;20480;-70
2021/03/05 11:24:57;;;;;;;2.78;0.60;;;5.90;44.10;;;;;;5072886;28;20008;-70
2021/03/05 11:27:23;;;;;;;1.50;0.60;;;5.90;44.90;;;;;;5072738;28;20082;-71
2021/03/05 11:29:48;;;;;;;1.02;0.60;;;6.00;46.40;;;;;;5073194;28;20419;-71
2021/03/05 11:32:15;;;;;;;2.33;0.70;;;6.10;44.50;;;;;;5072635;28;20479;-70
2021/03/05 11:34:41;;;;;;;2.90;0.75;;;6.10;44.50;;;;;;5072509;28;20082;-70
2021/03/05 11:37:07;;;;;;;1.60;0.77;;;6.20;43.80;;;;;;5073922;28;20033;-72
2021/03/05 11:39:33;;;;;;;2.97;0.73;;;6.20;45.20;;;;;;5071343;28;20021;-70
2021/03/05 11:41:59;;;;;;;4.55;0.70;;;6.20;43.70;;;;;;5074117;28;20020;-71
2021/03/05 11:44:26;;;;;;;1.45;0.70;;;6.30;45.00;;;;;;5074429;28;20464;-71
2021/03/05 11:46:51;;;;;;;2.85;0.50;;;6.30;46.10;;;;;;5072442;28;20013;-71
2021/03/05 11:49:17;;;;;;;1.85;0.88;;;6.40;48.20;;;;;;5073781;28;20077;-71
2021/03/05 11:51:43;;;;;;;1.08;0.80;;;6.50;44.00;;;;;;5073732;28;20105;-70
2021/03/05 11:54:09;;;;;;;2.38;0.75;;;6.50;45.40;;;;;;5072512;28;20063;-71
2021/03/05 11:56:35;;;;;;;0.80;0.40;;;6.50;45.70;;;;;;5074087;28;20025;-71
2021/03/05 11:59:01;;;;;;;0.80;0.45;;;6.60;46.30;;;;;;5073289;28;20103;-71
2021/03/05 12:01:28;;;;;;;1.23;0.30;;;6.70;46.50;;;;;;5073683;28;20088;-71
2021/03/05 12:03:54;;;;;;;2.55;0.73;;;6.90;48.30;;;;;;5072039;28;20098;-71
2021/03/05 12:06:22;;;;;;;2.47;0.73;;;7.00;48.10;;;;;;5073470;28;20433;-72
2021/03/05 12:08:48;;;;;;;1.77;0.40;;;7.00;44.10;;;;;;5071966;28;20082;-72
2021/03/05 12:11:14;;;;;;;0.40;0.40;;;7.00;46.40;;;;;;5071704;28;20090;-72
2021/03/05 12:13:39;;;;;;;0.70;0.40;;;7.00;46.90;;;;;;5073175;28;20025;-72
2021/03/05 12:16:06;;;;;;;1.02;0.30;;;7.10;47.10;;;;;;5073618;28;20020;-71
2021/03/05 12:18:32;;;;;;;1.42;0.75;;;7.10;44.30;;;;;;5071478;28;20336;-72
2021/03/05 12:20:57;;;;;;;1.33;0.55;;;7.10;44.50;;;;;;5071365;28;20073;-72
2021/03/05 12:23:23;;;;;;;1.38;0.40;;;7.20;42.20;;;;;;5071526;28;20027;-72
2021/03/05 12:25:49;;;;;;;3.15;0.60;;;7.10;41.20;;;;;;5071584;28;20107;-72
2021/03/05 12:28:14;;;;;;;1.65;0.50;;;7.10;41.70;;;;;;5072955;28;20107;-72
2021/03/05 12:30:40;;;;;;;2.10;0.65;;;7.00;42.00;;;;;;5071676;28;20021;-72
2021/03/05 12:33:06;;;;;;;0.80;0.40;;;7.00;42.00;;;;;;5071743;28;20025;-72
2021/03/05 12:35:31;;;;;;;1.02;0.50;;;7.10;42.10;;;;;;5073143;28;20391;-72
2021/03/05 12:37:57;;;;;;;1.88;0.50;;;7.10;41.80;;;;;;5073484;28;20024;-72
2021/03/05 12:40:23;;;;;;;4.20;1.10;;;7.00;42.20;;;;;;5071347;28;20035;-72
2021/03/05 12:42:54;;;;;;;1.33;0.60;;;7.10;42.40;;;;;;5071198;28;20039;-72
2021/03/05 12:45:21;;;;;;;1.85;0.40;;;7.10;42.30;;;;;;5071340;28;20074;-72
2021/03/05 12:47:46;;;;;;;4.60;0.52;;;7.10;42.40;;;;;;5071387;28;20074;-72
2021/03/05 12:50:12;;;;;;;4.47;0.80;;;7.20;42.50;;;;;;5070974;28;20072;-72
2021/03/05 12:52:38;;;;;;;1.52;0.40;;;7.30;43.30;;;;;;5072686;28;20044;-72
2021/03/05 12:55:04;;;;;;;1.10;0.30;;;7.40;43.20;;;;;;5071361;28;20107;-72
2021/03/05 12:57:30;;;;;;;0.73;0.50;;;7.50;42.30;;;;;;5071272;28;20024;-72
2021/03/05 12:59:55;;;;;;;1.05;0.68;;;7.60;43.10;;;;;;5071006;28;20045;-72
2021/03/05 13:02:22;;;;;;;3.13;0.50;;;7.60;42.90;;;;;;5071071;28;20049;-72
2021/03/05 13:04:47;;;;;;;1.30;0.47;;;7.60;43.00;;;;;;5072289;28;20016;-71
2021/03/05 13:07:13;;;;;;;0.98;0.22;;;7.70;41.20;;;;;;5072263;28;20356;-72